sensor_id;sensor_type;location;lat;lon;timestamp;P1;durP1;ratioP1;P2;durP2;ratioP2
21181;SDS011;10749;46.296;7.524;2023-09-12T00:00:02;8.57;;;5.80;;
21181;SDS011;10749;46.296;7.524;2023-09-12T00:02:30;8.32;;;6.10;;
21181;SDS011;10749;46.296;7.524;2023-09-12T00:04:55;6.90;;;6.03;;
21181;SDS011;10749;46.296;7.524;2023-09-12T00:07:21;7.22;;;6.35;;
21181;SDS011;10749;46.296;7.524;2023-09-12T00:09:46;7.80;;;6.80;;
21181;SDS011;10749;46.296;7.524;2023-09-12T00:12:14;6.85;;;6.25;;
21181;SDS011;10749;46.296;7.524;2023-09-12T00:14:40;8.52;;;6.65;;
21181;SDS011;10749;46.296;7.524;2023-09-12T00:17:05;6.45;;;5.85;;
21181;SDS011;10749;46.296;7.524;2023-09-12T00:19:31;6.15;;;5.63;;
21181;SDS011;10749;46.296;7.524;2023-09-12T00:21:56;7.03;;;5.63;;
21181;SDS011;10749;46.296;7.524;2023-09-12T00:24:21;6.80;;;5.75;;
21181;SDS011;10749;46.296;7.524;2023-09-12T00:26:47;6.88;;;5.95;;
21181;SDS011;10749;46.296;7.524;2023-09-12T00:29:12;6.88;;;6.10;;
21181;SDS011;10749;46.296;7.524;2023-09-12T00:31:37;7.25;;;6.40;;
21181;SDS011;10749;46.296;7.524;2023-09-12T00:34:03;6.97;;;6.18;;
21181;SDS011;10749;46.296;7.524;2023-09-12T00:36:28;8.07;;;6.38;;
21181;SDS011;10749;46.296;7.524;2023-09-12T00:38:53;8.30;;;6.65;;
21181;SDS011;10749;46.296;7.524;2023-09-12T00:41:18;8.02;;;6.43;;
21181;SDS011;10749;46.296;7.524;2023-09-12T00:43:44;7.53;;;6.25;;
21181;SDS011;10749;46.296;7.524;2023-09-12T00:46:09;7.03;;;5.90;;
21181;SDS011;10749;46.296;7.524;2023-09-12T00:48:34;7.80;;;5.88;;
21181;SDS011;10749;46.296;7.524;2023-09-12T00:51:02;8.40;;;6.70;;
21181;SDS011;10749;46.296;7.524;2023-09-12T00:53:28;7.10;;;6.40;;
21181;SDS011;10749;46.296;7.524;2023-09-12T00:55:54;7.15;;;6.40;;
21181;SDS011;10749;46.296;7.524;2023-09-12T00:58:22;6.93;;;6.13;;
21181;SDS011;10749;46.296;7.524;2023-09-12T01:00:49;7.07;;;5.95;;
21181;SDS011;10749;46.296;7.524;2023-09-12T01:03:15;8.50;;;6.40;;
21181;SDS011;10749;46.296;7.524;2023-09-12T01:05:41;7.63;;;6.18;;
21181;SDS011;10749;46.296;7.524;2023-09-12T01:08:07;13.00;;;6.45;;
21181;SDS011;10749;46.296;7.524;2023-09-12T01:10:33;6.75;;;5.78;;
21181;SDS011;10749;46.296;7.524;2023-09-12T01:12:58;8.43;;;6.53;;
21181;SDS011;10749;46.296;7.524;2023-09-12T01:15:24;8.48;;;6.80;;
21181;SDS011;10749;46.296;7.524;2023-09-12T01:17:49;8.68;;;6.40;;
21181;SDS011;10749;46.296;7.524;2023-09-12T01:20:16;8.50;;;6.38;;
21181;SDS011;10749;46.296;7.524;2023-09-12T01:25:42;8.43;;;6.28;;
21181;SDS011;10749;46.296;7.524;2023-09-12T01:28:19;7.63;;;6.43;;
21181;SDS011;10749;46.296;7.524;2023-09-12T01:30:49;8.48;;;5.85;;
21181;SDS011;10749;46.296;7.524;2023-09-12T01:33:16;9.50;;;6.03;;
21181;SDS011;10749;46.296;7.524;2023-09-12T01:35:42;7.80;;;6.25;;
21181;SDS011;10749;46.296;7.524;2023-09-12T01:38:08;8.95;;;6.20;;
21181;SDS011;10749;46.296;7.524;2023-09-12T01:40:48;7.55;;;6.30;;
21181;SDS011;10749;46.296;7.524;2023-09-12T01:43:16;7.82;;;5.72;;
21181;SDS011;10749;46.296;7.524;2023-09-12T01:45:43;7.05;;;5.82;;
21181;SDS011;10749;46.296;7.524;2023-09-12T01:48:10;8.77;;;6.50;;
21181;SDS011;10749;46.296;7.524;2023-09-12T01:50:36;7.07;;;6.28;;
21181;SDS011;10749;46.296;7.524;2023-09-12T01:53:02;7.82;;;5.60;;
21181;SDS011;10749;46.296;7.524;2023-09-12T01:55:28;9.98;;;6.50;;
21181;SDS011;10749;46.296;7.524;2023-09-12T01:57:54;6.75;;;6.15;;
21181;SDS011;10749;46.296;7.524;2023-09-12T02:00:21;9.23;;;5.70;;
21181;SDS011;10749;46.296;7.524;2023-09-12T02:02:47;6.38;;;5.78;;
21181;SDS011;10749;46.296;7.524;2023-09-12T02:07:44;6.90;;;6.15;;
21181;SDS011;10749;46.296;7.524;2023-09-12T02:10:10;8.10;;;6.43;;
21181;SDS011;10749;46.296;7.524;2023-09-12T02:12:35;8.05;;;6.40;;
21181;SDS011;10749;46.296;7.524;2023-09-12T02:15:01;6.40;;;5.65;;
21181;SDS011;10749;46.296;7.524;2023-09-12T02:17:27;6.95;;;6.05;;
21181;SDS011;10749;46.296;7.524;2023-09-12T02:19:52;9.52;;;6.35;;
21181;SDS011;10749;46.296;7.524;2023-09-12T02:22:17;10.50;;;5.95;;
21181;SDS011;10749;46.296;7.524;2023-09-12T02:24:42;6.72;;;5.68;;
21181;SDS011;10749;46.296;7.524;2023-09-12T02:27:08;9.10;;;6.78;;
21181;SDS011;10749;46.296;7.524;2023-09-12T02:29:33;8.77;;;6.57;;
21181;SDS011;10749;46.296;7.524;2023-09-12T02:31:59;7.30;;;6.47;;
21181;SDS011;10749;46.296;7.524;2023-09-12T02:34:24;7.70;;;6.05;;
21181;SDS011;10749;46.296;7.524;2023-09-12T02:36:49;6.80;;;6.10;;
21181;SDS011;10749;46.296;7.524;2023-09-12T02:39:15;6.88;;;5.72;;
21181;SDS011;10749;46.296;7.524;2023-09-12T02:41:40;6.63;;;5.88;;
21181;SDS011;10749;46.296;7.524;2023-09-12T02:44:06;7.28;;;6.22;;
21181;SDS011;10749;46.296;7.524;2023-09-12T02:46:31;10.77;;;5.97;;
21181;SDS011;10749;46.296;7.524;2023-09-12T02:48:57;6.60;;;5.93;;
21181;SDS011;10749;46.296;7.524;2023-09-12T02:51:22;7.13;;;6.07;;
21181;SDS011;10749;46.296;7.524;2023-09-12T02:53:49;6.88;;;6.13;;
21181;SDS011;10749;46.296;7.524;2023-09-12T02:56:14;6.68;;;6.07;;
21181;SDS011;10749;46.296;7.524;2023-09-12T02:58:40;8.02;;;6.60;;
21181;SDS011;10749;46.296;7.524;2023-09-12T03:01:05;6.95;;;6.22;;
21181;SDS011;10749;46.296;7.524;2023-09-12T03:03:31;8.82;;;6.43;;
21181;SDS011;10749;46.296;7.524;2023-09-12T03:05:58;7.18;;;6.10;;
21181;SDS011;10749;46.296;7.524;2023-09-12T03:08:24;7.88;;;6.18;;
21181;SDS011;10749;46.296;7.524;2023-09-12T03:10:54;7.75;;;6.38;;
21181;SDS011;10749;46.296;7.524;2023-09-12T03:13:20;7.38;;;6.40;;
21181;SDS011;10749;46.296;7.524;2023-09-12T03:15:45;6.80;;;6.10;;
21181;SDS011;10749;46.296;7.524;2023-09-12T03:18:10;7.18;;;6.13;;
21181;SDS011;10749;46.296;7.524;2023-09-12T03:20:37;9.75;;;6.55;;
21181;SDS011;10749;46.296;7.524;2023-09-12T03:23:03;7.47;;;6.65;;
21181;SDS011;10749;46.296;7.524;2023-09-12T03:25:28;7.68;;;6.80;;
21181;SDS011;10749;46.296;7.524;2023-09-12T03:27:54;7.90;;;6.45;;
21181;SDS011;10749;46.296;7.524;2023-09-12T03:30:19;9.55;;;6.65;;
21181;SDS011;10749;46.296;7.524;2023-09-12T03:32:45;7.57;;;6.22;;
21181;SDS011;10749;46.296;7.524;2023-09-12T03:35:10;7.95;;;6.72;;
21181;SDS011;10749;46.296;7.524;2023-09-12T03:37:36;6.63;;;5.93;;
21181;SDS011;10749;46.296;7.524;2023-09-12T03:40:05;8.48;;;6.20;;
21181;SDS011;10749;46.296;7.524;2023-09-12T03:42:31;6.70;;;6.00;;
21181;SDS011;10749;46.296;7.524;2023-09-12T03:44:57;9.35;;;6.03;;
21181;SDS011;10749;46.296;7.524;2023-09-12T03:47:22;7.22;;;6.53;;
21181;SDS011;10749;46.296;7.524;2023-09-12T03:49:47;8.70;;;6.65;;
21181;SDS011;10749;46.296;7.524;2023-09-12T03:52:13;6.60;;;6.00;;
21181;SDS011;10749;46.296;7.524;2023-09-12T03:54:38;7.25;;;6.55;;
21181;SDS011;10749;46.296;7.524;2023-09-12T03:57:04;6.85;;;6.25;;
21181;SDS011;10749;46.296;7.524;2023-09-12T03:59:29;8.65;;;6.25;;
21181;SDS011;10749;46.296;7.524;2023-09-12T04:01:54;7.78;;;6.80;;
21181;SDS011;10749;46.296;7.524;2023-09-12T04:04:19;7.28;;;6.35;;
21181;SDS011;10749;46.296;7.524;2023-09-12T04:06:45;9.55;;;6.40;;
21181;SDS011;10749;46.296;7.524;2023-09-12T04:09:11;8.95;;;6.40;;
21181;SDS011;10749;46.296;7.524;2023-09-12T04:11:37;10.45;;;6.53;;
21181;SDS011;10749;46.296;7.524;2023-09-12T04:14:02;7.53;;;6.60;;
21181;SDS011;10749;46.296;7.524;2023-09-12T04:16:27;7.38;;;6.63;;
21181;SDS011;10749;46.296;7.524;2023-09-12T04:18:53;6.97;;;6.30;;
21181;SDS011;10749;46.296;7.524;2023-09-12T04:21:18;8.13;;;6.63;;
21181;SDS011;10749;46.296;7.524;2023-09-12T04:23:43;7.85;;;7.05;;
21181;SDS011;10749;46.296;7.524;2023-09-12T04:26:08;7.25;;;6.25;;
21181;SDS011;10749;46.296;7.524;2023-09-12T04:28:34;8.18;;;6.47;;
21181;SDS011;10749;46.296;7.524;2023-09-12T04:31:02;8.35;;;6.32;;
21181;SDS011;10749;46.296;7.524;2023-09-12T04:33:28;7.20;;;6.40;;
21181;SDS011;10749;46.296;7.524;2023-09-12T04:35:53;8.30;;;6.82;;
21181;SDS011;10749;46.296;7.524;2023-09-12T04:38:19;7.00;;;6.30;;
21181;SDS011;10749;46.296;7.524;2023-09-12T04:40:52;8.95;;;6.75;;
21181;SDS011;10749;46.296;7.524;2023-09-12T04:43:19;7.45;;;6.32;;
21181;SDS011;10749;46.296;7.524;2023-09-12T04:45:44;11.50;;;6.20;;
21181;SDS011;10749;46.296;7.524;2023-09-12T04:48:09;9.45;;;6.22;;
21181;SDS011;10749;46.296;7.524;2023-09-12T04:50:39;8.32;;;6.57;;
21181;SDS011;10749;46.296;7.524;2023-09-12T04:53:06;8.27;;;6.72;;
21181;SDS011;10749;46.296;7.524;2023-09-12T04:55:31;7.55;;;6.50;;
21181;SDS011;10749;46.296;7.524;2023-09-12T04:57:56;9.15;;;6.75;;
21181;SDS011;10749;46.296;7.524;2023-09-12T05:00:21;8.57;;;7.10;;
21181;SDS011;10749;46.296;7.524;2023-09-12T05:02:47;8.85;;;6.72;;
21181;SDS011;10749;46.296;7.524;2023-09-12T05:05:12;7.20;;;6.20;;
21181;SDS011;10749;46.296;7.524;2023-09-12T05:07:37;7.25;;;6.55;;
21181;SDS011;10749;46.296;7.524;2023-09-12T05:10:03;9.57;;;6.93;;
21181;SDS011;10749;46.296;7.524;2023-09-12T05:12:28;7.95;;;6.78;;
21181;SDS011;10749;46.296;7.524;2023-09-12T05:14:54;9.68;;;7.05;;
21181;SDS011;10749;46.296;7.524;2023-09-12T05:17:19;10.90;;;7.22;;
21181;SDS011;10749;46.296;7.524;2023-09-12T05:19:44;9.13;;;6.38;;
21181;SDS011;10749;46.296;7.524;2023-09-12T05:22:09;13.73;;;6.63;;
21181;SDS011;10749;46.296;7.524;2023-09-12T05:24:35;7.97;;;6.25;;
21181;SDS011;10749;46.296;7.524;2023-09-12T05:27:00;14.82;;;7.20;;
21181;SDS011;10749;46.296;7.524;2023-09-12T05:29:25;9.30;;;6.95;;
21181;SDS011;10749;46.296;7.524;2023-09-12T05:31:50;10.45;;;6.63;;
21181;SDS011;10749;46.296;7.524;2023-09-12T05:34:16;13.25;;;6.72;;
21181;SDS011;10749;46.296;7.524;2023-09-12T05:36:41;11.07;;;6.68;;
21181;SDS011;10749;46.296;7.524;2023-09-12T05:39:06;7.78;;;6.32;;
21181;SDS011;10749;46.296;7.524;2023-09-12T05:41:32;8.57;;;6.60;;
21181;SDS011;10749;46.296;7.524;2023-09-12T05:43:57;10.57;;;6.80;;
21181;SDS011;10749;46.296;7.524;2023-09-12T05:46:22;11.65;;;6.63;;
21181;SDS011;10749;46.296;7.524;2023-09-12T05:48:47;9.25;;;6.88;;
21181;SDS011;10749;46.296;7.524;2023-09-12T05:51:13;8.80;;;6.82;;
21181;SDS011;10749;46.296;7.524;2023-09-12T05:53:38;10.23;;;6.63;;
21181;SDS011;10749;46.296;7.524;2023-09-12T05:56:03;9.57;;;6.75;;
21181;SDS011;10749;46.296;7.524;2023-09-12T05:58:28;10.55;;;6.50;;
21181;SDS011;10749;46.296;7.524;2023-09-12T06:00:54;10.98;;;7.00;;
21181;SDS011;10749;46.296;7.524;2023-09-12T06:03:20;7.72;;;6.60;;
21181;SDS011;10749;46.296;7.524;2023-09-12T06:05:46;8.85;;;7.15;;
21181;SDS011;10749;46.296;7.524;2023-09-12T06:08:11;11.43;;;6.38;;
21181;SDS011;10749;46.296;7.524;2023-09-12T06:10:37;7.65;;;6.13;;
21181;SDS011;10749;46.296;7.524;2023-09-12T06:13:02;9.07;;;6.30;;
21181;SDS011;10749;46.296;7.524;2023-09-12T06:15:27;9.48;;;6.63;;
21181;SDS011;10749;46.296;7.524;2023-09-12T06:17:53;11.85;;;7.35;;
21181;SDS011;10749;46.296;7.524;2023-09-12T06:20:19;9.30;;;6.68;;
21181;SDS011;10749;46.296;7.524;2023-09-12T06:22:44;7.75;;;6.40;;
21181;SDS011;10749;46.296;7.524;2023-09-12T06:25:09;9.10;;;7.55;;
21181;SDS011;10749;46.296;7.524;2023-09-12T06:27:35;10.65;;;6.68;;
21181;SDS011;10749;46.296;7.524;2023-09-12T06:30:00;9.35;;;6.68;;
21181;SDS011;10749;46.296;7.524;2023-09-12T06:32:26;8.65;;;6.68;;
21181;SDS011;10749;46.296;7.524;2023-09-12T06:34:51;9.48;;;7.32;;
21181;SDS011;10749;46.296;7.524;2023-09-12T06:37:17;8.00;;;6.75;;
21181;SDS011;10749;46.296;7.524;2023-09-12T06:39:43;8.13;;;6.30;;
21181;SDS011;10749;46.296;7.524;2023-09-12T06:42:09;9.00;;;6.57;;
21181;SDS011;10749;46.296;7.524;2023-09-12T06:44:34;8.70;;;6.47;;
21181;SDS011;10749;46.296;7.524;2023-09-12T06:47:00;7.35;;;6.63;;
21181;SDS011;10749;46.296;7.524;2023-09-12T06:49:25;11.02;;;6.35;;
21181;SDS011;10749;46.296;7.524;2023-09-12T06:51:50;9.00;;;6.43;;
21181;SDS011;10749;46.296;7.524;2023-09-12T06:54:15;8.00;;;6.15;;
21181;SDS011;10749;46.296;7.524;2023-09-12T06:56:41;7.95;;;5.97;;
21181;SDS011;10749;46.296;7.524;2023-09-12T06:59:07;9.38;;;6.35;;
21181;SDS011;10749;46.296;7.524;2023-09-12T07:01:33;11.45;;;6.70;;
21181;SDS011;10749;46.296;7.524;2023-09-12T07:03:58;15.38;;;7.50;;
21181;SDS011;10749;46.296;7.524;2023-09-12T07:06:24;11.63;;;6.72;;
21181;SDS011;10749;46.296;7.524;2023-09-12T07:08:49;14.45;;;7.65;;
21181;SDS011;10749;46.296;7.524;2023-09-12T07:11:16;13.75;;;7.25;;
21181;SDS011;10749;46.296;7.524;2023-09-12T07:13:41;11.38;;;7.75;;
21181;SDS011;10749;46.296;7.524;2023-09-12T07:16:07;11.52;;;7.47;;
21181;SDS011;10749;46.296;7.524;2023-09-12T07:18:32;13.68;;;7.05;;
21181;SDS011;10749;46.296;7.524;2023-09-12T07:20:58;12.80;;;7.28;;
21181;SDS011;10749;46.296;7.524;2023-09-12T07:23:24;10.68;;;7.38;;
21181;SDS011;10749;46.296;7.524;2023-09-12T07:25:49;10.48;;;7.32;;
21181;SDS011;10749;46.296;7.524;2023-09-12T07:28:15;13.15;;;7.15;;
21181;SDS011;10749;46.296;7.524;2023-09-12T07:30:40;13.35;;;7.30;;
21181;SDS011;10749;46.296;7.524;2023-09-12T07:33:06;11.60;;;6.97;;
21181;SDS011;10749;46.296;7.524;2023-09-12T07:35:31;17.48;;;7.45;;
21181;SDS011;10749;46.296;7.524;2023-09-12T07:37:56;11.80;;;7.30;;
21181;SDS011;10749;46.296;7.524;2023-09-12T07:40:22;12.55;;;7.38;;
21181;SDS011;10749;46.296;7.524;2023-09-12T07:42:47;8.88;;;6.80;;
21181;SDS011;10749;46.296;7.524;2023-09-12T07:45:12;11.75;;;6.50;;
21181;SDS011;10749;46.296;7.524;2023-09-12T07:47:38;13.38;;;6.78;;
21181;SDS011;10749;46.296;7.524;2023-09-12T07:50:04;9.65;;;6.75;;
21181;SDS011;10749;46.296;7.524;2023-09-12T07:52:31;12.68;;;6.80;;
21181;SDS011;10749;46.296;7.524;2023-09-12T07:55:00;10.15;;;6.85;;
21181;SDS011;10749;46.296;7.524;2023-09-12T07:57:26;10.57;;;7.05;;
21181;SDS011;10749;46.296;7.524;2023-09-12T07:59:51;9.95;;;6.45;;
21181;SDS011;10749;46.296;7.524;2023-09-12T08:02:16;9.07;;;6.72;;
21181;SDS011;10749;46.296;7.524;2023-09-12T08:04:41;9.48;;;6.45;;
21181;SDS011;10749;46.296;7.524;2023-09-12T08:07:07;8.05;;;6.45;;
21181;SDS011;10749;46.296;7.524;2023-09-12T08:09:48;10.50;;;6.60;;
21181;SDS011;10749;46.296;7.524;2023-09-12T08:12:15;11.05;;;6.45;;
21181;SDS011;10749;46.296;7.524;2023-09-12T08:14:41;10.30;;;6.88;;
21181;SDS011;10749;46.296;7.524;2023-09-12T08:17:06;6.72;;;6.00;;
21181;SDS011;10749;46.296;7.524;2023-09-12T08:19:31;9.35;;;6.30;;
21181;SDS011;10749;46.296;7.524;2023-09-12T08:21:57;10.73;;;6.50;;
21181;SDS011;10749;46.296;7.524;2023-09-12T08:24:22;6.45;;;5.65;;
21181;SDS011;10749;46.296;7.524;2023-09-12T08:26:47;9.85;;;6.03;;
21181;SDS011;10749;46.296;7.524;2023-09-12T08:29:12;9.65;;;6.35;;
21181;SDS011;10749;46.296;7.524;2023-09-12T08:31:38;9.88;;;5.95;;
21181;SDS011;10749;46.296;7.524;2023-09-12T08:34:03;7.93;;;5.85;;
21181;SDS011;10749;46.296;7.524;2023-09-12T08:36:29;6.65;;;5.75;;
21181;SDS011;10749;46.296;7.524;2023-09-12T08:38:54;7.03;;;6.30;;
21181;SDS011;10749;46.296;7.524;2023-09-12T08:41:20;9.10;;;6.15;;
21181;SDS011;10749;46.296;7.524;2023-09-12T08:43:45;7.45;;;5.57;;
21181;SDS011;10749;46.296;7.524;2023-09-12T08:46:11;10.13;;;6.40;;
21181;SDS011;10749;46.296;7.524;2023-09-12T08:48:37;7.82;;;6.60;;
21181;SDS011;10749;46.296;7.524;2023-09-12T08:51:04;11.35;;;6.65;;
21181;SDS011;10749;46.296;7.524;2023-09-12T08:53:32;10.65;;;6.40;;
21181;SDS011;10749;46.296;7.524;2023-09-12T08:55:57;11.15;;;6.55;;
21181;SDS011;10749;46.296;7.524;2023-09-12T08:58:23;9.57;;;5.93;;
21181;SDS011;10749;46.296;7.524;2023-09-12T09:00:50;10.52;;;5.88;;
21181;SDS011;10749;46.296;7.524;2023-09-12T09:03:16;10.77;;;6.25;;
21181;SDS011;10749;46.296;7.524;2023-09-12T09:05:43;9.85;;;6.38;;
21181;SDS011;10749;46.296;7.524;2023-09-12T09:08:09;6.75;;;6.05;;
21181;SDS011;10749;46.296;7.524;2023-09-12T09:10:36;10.07;;;6.50;;
21181;SDS011;10749;46.296;7.524;2023-09-12T09:13:01;8.50;;;6.55;;
21181;SDS011;10749;46.296;7.524;2023-09-12T09:15:31;8.68;;;6.57;;
21181;SDS011;10749;46.296;7.524;2023-09-12T09:17:57;12.15;;;6.40;;
21181;SDS011;10749;46.296;7.524;2023-09-12T09:20:26;10.43;;;6.30;;
21181;SDS011;10749;46.296;7.524;2023-09-12T09:23:26;9.85;;;6.03;;
21181;SDS011;10749;46.296;7.524;2023-09-12T09:25:51;7.43;;;6.18;;
21181;SDS011;10749;46.296;7.524;2023-09-12T09:28:19;6.93;;;6.22;;
21181;SDS011;10749;46.296;7.524;2023-09-12T09:30:46;13.95;;;6.88;;
21181;SDS011;10749;46.296;7.524;2023-09-12T09:33:14;8.88;;;6.43;;
21181;SDS011;10749;46.296;7.524;2023-09-12T09:35:47;10.45;;;6.43;;
21181;SDS011;10749;46.296;7.524;2023-09-12T09:38:13;12.25;;;7.30;;
21181;SDS011;10749;46.296;7.524;2023-09-12T09:40:43;11.23;;;6.80;;
21181;SDS011;10749;46.296;7.524;2023-09-12T09:43:09;15.25;;;6.75;;
21181;SDS011;10749;46.296;7.524;2023-09-12T09:45:42;11.10;;;7.05;;
21181;SDS011;10749;46.296;7.524;2023-09-12T09:48:09;10.57;;;6.28;;
21181;SDS011;10749;46.296;7.524;2023-09-12T09:50:35;8.63;;;5.85;;
21181;SDS011;10749;46.296;7.524;2023-09-12T09:53:03;13.55;;;7.40;;
21181;SDS011;10749;46.296;7.524;2023-09-12T09:55:30;13.73;;;7.13;;
21181;SDS011;10749;46.296;7.524;2023-09-12T09:57:57;9.32;;;6.85;;
21181;SDS011;10749;46.296;7.524;2023-09-12T10:00:22;9.18;;;6.80;;
21181;SDS011;10749;46.296;7.524;2023-09-12T10:02:49;9.70;;;6.38;;
21181;SDS011;10749;46.296;7.524;2023-09-12T10:05:16;10.63;;;6.55;;
21181;SDS011;10749;46.296;7.524;2023-09-12T10:07:42;11.40;;;6.93;;
21181;SDS011;10749;46.296;7.524;2023-09-12T10:10:12;8.10;;;6.40;;
21181;SDS011;10749;46.296;7.524;2023-09-12T10:12:39;8.25;;;6.38;;
21181;SDS011;10749;46.296;7.524;2023-09-12T10:15:10;9.60;;;6.30;;
21181;SDS011;10749;46.296;7.524;2023-09-12T10:17:39;8.13;;;6.10;;
21181;SDS011;10749;46.296;7.524;2023-09-12T10:20:11;12.18;;;6.20;;
21181;SDS011;10749;46.296;7.524;2023-09-12T10:22:45;10.38;;;6.38;;
21181;SDS011;10749;46.296;7.524;2023-09-12T10:25:28;6.90;;;6.13;;
21181;SDS011;10749;46.296;7.524;2023-09-12T10:27:54;8.90;;;6.53;;
21181;SDS011;10749;46.296;7.524;2023-09-12T10:30:21;8.63;;;6.43;;
21181;SDS011;10749;46.296;7.524;2023-09-12T10:32:48;11.23;;;6.80;;
21181;SDS011;10749;46.296;7.524;2023-09-12T10:35:14;9.15;;;6.18;;
21181;SDS011;10749;46.296;7.524;2023-09-12T10:37:40;9.80;;;6.13;;
21181;SDS011;10749;46.296;7.524;2023-09-12T10:40:10;10.55;;;6.25;;
21181;SDS011;10749;46.296;7.524;2023-09-12T10:42:37;8.75;;;6.72;;
21181;SDS011;10749;46.296;7.524;2023-09-12T10:45:05;7.93;;;6.10;;
21181;SDS011;10749;46.296;7.524;2023-09-12T10:47:32;10.23;;;6.70;;
21181;SDS011;10749;46.296;7.524;2023-09-12T10:49:59;7.10;;;5.93;;
21181;SDS011;10749;46.296;7.524;2023-09-12T10:52:28;9.65;;;6.75;;
21181;SDS011;10749;46.296;7.524;2023-09-12T10:54:53;10.77;;;6.82;;
21181;SDS011;10749;46.296;7.524;2023-09-12T10:57:19;10.85;;;6.55;;
21181;SDS011;10749;46.296;7.524;2023-09-12T11:02:33;10.02;;;6.75;;
21181;SDS011;10749;46.296;7.524;2023-09-12T11:05:01;8.10;;;6.75;;
21181;SDS011;10749;46.296;7.524;2023-09-12T11:12:41;9.60;;;6.07;;
21181;SDS011;10749;46.296;7.524;2023-09-12T11:15:08;10.57;;;6.25;;
21181;SDS011;10749;46.296;7.524;2023-09-12T11:17:38;9.68;;;6.43;;
21181;SDS011;10749;46.296;7.524;2023-09-12T11:20:08;8.82;;;6.60;;
21181;SDS011;10749;46.296;7.524;2023-09-12T11:22:37;8.35;;;6.40;;
21181;SDS011;10749;46.296;7.524;2023-09-12T11:25:04;7.65;;;6.05;;
21181;SDS011;10749;46.296;7.524;2023-09-12T11:27:44;7.68;;;6.38;;
21181;SDS011;10749;46.296;7.524;2023-09-12T11:30:15;6.00;;;5.40;;
21181;SDS011;10749;46.296;7.524;2023-09-12T11:32:42;6.35;;;5.72;;
21181;SDS011;10749;46.296;7.524;2023-09-12T11:35:10;6.70;;;5.18;;
21181;SDS011;10749;46.296;7.524;2023-09-12T11:37:36;5.78;;;5.20;;
21181;SDS011;10749;46.296;7.524;2023-09-12T11:40:02;7.15;;;4.80;;
21181;SDS011;10749;46.296;7.524;2023-09-12T11:42:41;5.25;;;3.75;;
21181;SDS011;10749;46.296;7.524;2023-09-12T11:45:08;8.48;;;4.25;;
21181;SDS011;10749;46.296;7.524;2023-09-12T11:47:34;7.60;;;4.20;;
21181;SDS011;10749;46.296;7.524;2023-09-12T11:50:04;6.28;;;4.63;;
21181;SDS011;10749;46.296;7.524;2023-09-12T11:52:30;5.50;;;4.38;;
21181;SDS011;10749;46.296;7.524;2023-09-12T11:54:55;9.52;;;4.22;;
21181;SDS011;10749;46.296;7.524;2023-09-12T11:57:20;4.43;;;3.13;;
21181;SDS011;10749;46.296;7.524;2023-09-12T11:59:47;5.75;;;3.15;;
21181;SDS011;10749;46.296;7.524;2023-09-12T12:02:16;6.38;;;3.05;;
21181;SDS011;10749;46.296;7.524;2023-09-12T12:04:43;6.45;;;2.92;;
21181;SDS011;10749;46.296;7.524;2023-09-12T12:07:09;12.13;;;2.80;;
21181;SDS011;10749;46.296;7.524;2023-09-12T12:09:35;10.30;;;2.33;;
21181;SDS011;10749;46.296;7.524;2023-09-12T12:12:08;6.60;;;2.50;;
21181;SDS011;10749;46.296;7.524;2023-09-12T12:14:35;5.82;;;2.10;;
21181;SDS011;10749;46.296;7.524;2023-09-12T12:17:11;6.65;;;2.03;;
21181;SDS011;10749;46.296;7.524;2023-09-12T12:19:37;3.33;;;2.00;;
21181;SDS011;10749;46.296;7.524;2023-09-12T12:22:04;8.70;;;2.25;;
21181;SDS011;10749;46.296;7.524;2023-09-12T12:24:41;3.75;;;1.80;;
21181;SDS011;10749;46.296;7.524;2023-09-12T12:27:11;3.38;;;1.50;;
21181;SDS011;10749;46.296;7.524;2023-09-12T12:29:36;5.53;;;1.50;;
21181;SDS011;10749;46.296;7.524;2023-09-12T12:32:04;2.55;;;1.60;;
21181;SDS011;10749;46.296;7.524;2023-09-12T12:34:30;3.97;;;1.40;;
21181;SDS011;10749;46.296;7.524;2023-09-12T12:36:55;4.43;;;1.33;;
21181;SDS011;10749;46.296;7.524;2023-09-12T12:39:21;6.57;;;1.58;;
21181;SDS011;10749;46.296;7.524;2023-09-12T12:41:47;2.92;;;1.50;;
21181;SDS011;10749;46.296;7.524;2023-09-12T12:44:13;2.53;;;1.50;;
21181;SDS011;10749;46.296;7.524;2023-09-12T12:46:56;3.47;;;1.60;;
21181;SDS011;10749;46.296;7.524;2023-09-12T12:49:22;4.40;;;1.45;;
21181;SDS011;10749;46.296;7.524;2023-09-12T12:51:48;2.35;;;1.33;;
21181;SDS011;10749;46.296;7.524;2023-09-12T12:54:13;4.13;;;1.67;;
21181;SDS011;10749;46.296;7.524;2023-09-12T12:56:40;3.75;;;1.88;;
21181;SDS011;10749;46.296;7.524;2023-09-12T12:59:06;4.75;;;1.40;;
21181;SDS011;10749;46.296;7.524;2023-09-12T13:01:37;3.03;;;1.27;;
21181;SDS011;10749;46.296;7.524;2023-09-12T13:04:09;7.32;;;1.95;;
21181;SDS011;10749;46.296;7.524;2023-09-12T13:06:35;2.50;;;1.58;;
21181;SDS011;10749;46.296;7.524;2023-09-12T13:09:01;2.08;;;1.50;;
21181;SDS011;10749;46.296;7.524;2023-09-12T13:11:30;5.85;;;1.80;;
21181;SDS011;10749;46.296;7.524;2023-09-12T13:13:58;3.08;;;1.85;;
21181;SDS011;10749;46.296;7.524;2023-09-12T13:16:23;4.28;;;1.90;;
21181;SDS011;10749;46.296;7.524;2023-09-12T13:18:49;4.15;;;1.75;;
21181;SDS011;10749;46.296;7.524;2023-09-12T13:21:14;6.00;;;1.73;;
21181;SDS011;10749;46.296;7.524;2023-09-12T13:23:39;4.07;;;2.13;;
21181;SDS011;10749;46.296;7.524;2023-09-12T13:26:06;6.75;;;2.33;;
21181;SDS011;10749;46.296;7.524;2023-09-12T13:28:33;5.82;;;1.65;;
21181;SDS011;10749;46.296;7.524;2023-09-12T13:30:58;4.57;;;2.20;;
21181;SDS011;10749;46.296;7.524;2023-09-12T13:33:23;6.72;;;1.95;;
21181;SDS011;10749;46.296;7.524;2023-09-12T13:35:49;3.25;;;2.08;;
21181;SDS011;10749;46.296;7.524;2023-09-12T13:38:15;7.13;;;1.90;;
21181;SDS011;10749;46.296;7.524;2023-09-12T13:40:42;6.90;;;1.80;;
21181;SDS011;10749;46.296;7.524;2023-09-12T13:43:08;3.92;;;2.03;;
21181;SDS011;10749;46.296;7.524;2023-09-12T13:45:34;5.07;;;2.08;;
21181;SDS011;10749;46.296;7.524;2023-09-12T13:48:00;1.90;;;1.70;;
21181;SDS011;10749;46.296;7.524;2023-09-12T13:50:26;2.88;;;2.10;;
21181;SDS011;10749;46.296;7.524;2023-09-12T13:52:55;3.28;;;1.90;;
21181;SDS011;10749;46.296;7.524;2023-09-12T13:55:21;7.07;;;2.20;;
21181;SDS011;10749;46.296;7.524;2023-09-12T13:57:47;6.72;;;2.08;;
21181;SDS011;10749;46.296;7.524;2023-09-12T14:00:12;6.95;;;2.08;;
21181;SDS011;10749;46.296;7.524;2023-09-12T14:02:38;5.30;;;2.08;;
21181;SDS011;10749;46.296;7.524;2023-09-12T14:05:03;4.10;;;1.95;;
21181;SDS011;10749;46.296;7.524;2023-09-12T14:07:29;3.13;;;2.10;;
21181;SDS011;10749;46.296;7.524;2023-09-12T14:09:54;6.60;;;1.90;;
21181;SDS011;10749;46.296;7.524;2023-09-12T14:12:22;5.88;;;2.40;;
21181;SDS011;10749;46.296;7.524;2023-09-12T14:14:47;7.72;;;1.98;;
21181;SDS011;10749;46.296;7.524;2023-09-12T14:17:13;3.17;;;2.10;;
21181;SDS011;10749;46.296;7.524;2023-09-12T14:19:39;4.30;;;1.83;;
21181;SDS011;10749;46.296;7.524;2023-09-12T14:22:04;4.60;;;2.15;;
21181;SDS011;10749;46.296;7.524;2023-09-12T14:24:29;4.30;;;1.83;;
21181;SDS011;10749;46.296;7.524;2023-09-12T14:26:54;3.67;;;2.03;;
21181;SDS011;10749;46.296;7.524;2023-09-12T14:29:20;3.88;;;2.00;;
21181;SDS011;10749;46.296;7.524;2023-09-12T14:31:45;3.90;;;1.77;;
21181;SDS011;10749;46.296;7.524;2023-09-12T14:34:15;2.30;;;1.60;;
21181;SDS011;10749;46.296;7.524;2023-09-12T14:36:41;4.70;;;1.90;;
21181;SDS011;10749;46.296;7.524;2023-09-12T14:39:07;2.28;;;1.52;;
21181;SDS011;10749;46.296;7.524;2023-09-12T14:41:32;2.35;;;1.70;;
21181;SDS011;10749;46.296;7.524;2023-09-12T14:43:57;4.18;;;1.70;;
21181;SDS011;10749;46.296;7.524;2023-09-12T14:46:23;3.45;;;1.58;;
21181;SDS011;10749;46.296;7.524;2023-09-12T14:48:48;3.05;;;1.50;;
21181;SDS011;10749;46.296;7.524;2023-09-12T14:51:13;6.07;;;1.50;;
21181;SDS011;10749;46.296;7.524;2023-09-12T14:53:39;3.63;;;1.55;;